Rosette, Utah
Current Conditions -  °F | °C
As of 9:58 AM on Friday 24 Oct 2014 (Local Time) from KU16 Reporting Station
Clear Clear  
Wind Chill: 57°   Ceiling: Unl
Heat Index: 57°   Visibility: 10mi
Dew Point: 36°   Wind: 0mph
Humidity: 45%   Direction: NA
Pressure: 30.16"   Gusts: NA
Location:  41.7631°N, 113.334°W
Report Text: KU16 241558Z AUTO 00000KT 10SM CLR 14/02 A3016 RMK AO2 SLP833 T01390022 $
Loading
Personal Weather Stations






























Interactive Weather Map
Tropical Storm Tracking
New forecast layout! Learn more

10-Day Weather Forecast

Advertisements
Track Severe Weather on mobile